Time;durP1;ratioP1;P1;durP2;ratioP2;P2;SDS_P1;SDS_P2;PMS_P1;PMS_P2;Temp;Humidity;BMP_temperature;BMP_pressure;BME280_temperature;BME280_humidity;BME280_pressure;Samples;Min_cycle;Max_cycle;Signal;HPM_P1;HPM_P2
2024/03/31 00:01:54;;;;;;;7.10;3.10;;;;;;;13.25;57.02;100392.23;106388;1255;61360;-59
2024/03/31 00:04:22;;;;;;;7.40;3.10;;;;;;;13.24;57.22;100391.98;105063;1259;63803;-59
2024/03/31 00:06:50;;;;;;;7.00;3.30;;;;;;;13.26;57.48;100389.54;106597;1255;61251;-58
2024/03/31 00:09:18;;;;;;;6.90;2.80;;;;;;;13.26;57.68;100390.53;105789;1260;61250;-58
2024/03/31 00:11:45;;;;;;;7.80;2.90;;;;;;;13.27;57.71;100392.77;105248;1258;65783;-58
2024/03/31 00:14:13;;;;;;;7.50;3.60;;;;;;;13.24;57.62;100392.55;105198;1260;61389;-59
2024/03/31 00:16:40;;;;;;;7.10;3.60;;;;;;;13.18;57.62;100393.92;105126;1256;64219;-56
2024/03/31 00:19:07;;;;;;;11.50;3.90;;;;;;;13.10;57.63;100395.38;105123;1256;61354;-57
2024/03/31 00:21:35;;;;;;;7.30;3.50;;;;;;;13.03;57.73;100396.18;105123;1254;61440;-57
2024/03/31 00:24:03;;;;;;;7.10;3.50;;;;;;;12.98;57.70;100396.60;105150;1255;64573;-56
2024/03/31 00:26:30;;;;;;;9.60;4.50;;;;;;;12.94;57.89;100396.43;106332;1257;61287;-59
2024/03/31 00:28:58;;;;;;;8.70;3.40;;;;;;;12.95;58.21;100397.02;105509;1254;64182;-59
2024/03/31 00:31:26;;;;;;;6.70;3.00;;;;;;;13.05;58.77;100396.46;105233;1252;61261;-59
2024/03/31 00:33:54;;;;;;;9.70;3.10;;;;;;;13.22;59.20;100402.00;105065;1255;61178;-57
2024/03/31 00:36:21;;;;;;;8.80;3.70;;;;;;;13.37;59.44;100398.08;105151;1254;64582;-56
2024/03/31 00:38:49;;;;;;;8.60;3.60;;;;;;;13.49;59.32;100403.67;105110;1258;61347;-57
2024/03/31 00:41:16;;;;;;;8.80;3.50;;;;;;;13.57;59.17;100402.55;105206;1253;62445;-57
2024/03/31 00:43:44;;;;;;;12.60;3.30;;;;;;;13.63;59.15;100397.09;106841;1256;61392;-58
2024/03/31 00:46:12;;;;;;;10.60;4.00;;;;;;;13.67;58.83;100393.66;105262;1258;60445;-58
2024/03/31 00:48:39;;;;;;;9.70;3.60;;;;;;;13.70;58.77;100393.89;105209;1258;64930;-58
2024/03/31 00:51:07;;;;;;;6.00;3.20;;;;;;;13.77;58.46;100396.11;105262;1258;61356;-57
2024/03/31 00:53:34;;;;;;;7.70;3.40;;;;;;;13.85;58.29;100393.77;105226;1253;62487;-58
2024/03/31 00:56:02;;;;;;;9.20;3.30;;;;;;;13.91;58.11;100392.00;105199;1253;61377;-58
2024/03/31 00:58:29;;;;;;;8.50;3.70;;;;;;;13.94;57.75;100393.80;105178;1255;59807;-59
2024/03/31 01:00:57;;;;;;;7.80;3.80;;;;;;;13.94;57.61;100391.66;105098;1254;65776;-60
2024/03/31 01:03:28;;;;;;;8.00;3.60;;;;;;;13.93;57.36;100393.42;105631;1253;62108;-58
2024/03/31 01:06:00;;;;;;;7.40;3.40;;;;;;;13.84;57.10;100399.37;105451;1256;63750;-60
2024/03/31 01:08:28;;;;;;;9.10;3.90;;;;;;;13.69;57.06;100396.32;105689;1253;61232;-60
2024/03/31 01:10:55;;;;;;;8.20;3.60;;;;;;;13.56;57.17;100395.94;105140;1260;61174;-60
2024/03/31 01:13:23;;;;;;;7.30;3.20;;;;;;;13.43;57.32;100394.45;105203;1254;65643;-59
2024/03/31 01:15:53;;;;;;;9.00;3.40;;;;;;;13.35;57.30;100392.34;105567;1253;61410;-58
2024/03/31 01:18:20;;;;;;;7.80;3.70;;;;;;;13.33;57.53;100392.27;104972;1260;64055;-59
2024/03/31 01:20:48;;;;;;;8.60;3.40;;;;;;;13.31;57.69;100389.39;105186;1258;62164;-58
2024/03/31 01:23:15;;;;;;;9.60;3.80;;;;;;;13.30;57.88;100391.42;105221;1254;61343;-58
2024/03/31 01:25:43;;;;;;;7.40;3.60;;;;;;;13.30;58.19;100394.27;106762;1253;64493;-58
2024/03/31 01:28:10;;;;;;;7.50;3.70;;;;;;;13.31;58.29;100396.48;105195;1256;61185;-58
2024/03/31 01:30:38;;;;;;;14.60;4.10;;;;;;;13.29;58.46;100400.29;105216;1254;64765;-58
2024/03/31 01:33:05;;;;;;;9.60;4.00;;;;;;;13.28;58.59;100398.83;105108;1256;61440;-58
2024/03/31 01:35:33;;;;;;;7.80;3.50;;;;;;;13.29;58.79;100396.41;105053;1258;61155;-57
2024/03/31 01:38:00;;;;;;;10.70;3.70;;;;;;;13.35;58.90;100395.42;105137;1255;64464;-57
2024/03/31 01:40:28;;;;;;;9.30;3.20;;;;;;;13.43;58.81;100398.37;105049;1253;61582;-58
2024/03/31 01:42:55;;;;;;;7.00;3.40;;;;;;;13.48;58.71;100401.04;105128;1254;63742;-58
2024/03/31 01:45:23;;;;;;;7.10;3.70;;;;;;;13.52;58.75;100404.21;105075;1258;61596;-56
2024/03/31 01:47:50;;;;;;;6.60;3.10;;;;;;;13.52;58.68;100401.89;105106;1259;61348;-56
2024/03/31 01:50:18;;;;;;;8.10;3.60;;;;;;;13.51;58.52;100404.28;105186;1253;64521;-57
2024/03/31 01:52:45;;;;;;;12.40;3.90;;;;;;;13.46;58.44;100404.41;105258;1258;61346;-58
2024/03/31 01:55:13;;;;;;;10.90;3.80;;;;;;;13.39;58.48;100403.31;105149;1258;62503;-57
2024/03/31 01:57:40;;;;;;;10.60;4.10;;;;;;;13.34;58.50;100399.86;105041;1257;61521;-58
2024/03/31 02:00:09;;;;;;;9.10;3.40;;;;;;;13.34;58.62;100403.91;105193;1254;61298;-63
2024/03/31 02:02:43;;;;;;;7.80;3.40;;;;;;;13.37;58.85;100405.95;105944;1253;66136;-59
2024/03/31 02:05:10;;;;;;;8.00;4.20;;;;;;;13.44;58.98;100407.80;105019;1253;61379;-58
2024/03/31 02:07:38;;;;;;;10.80;3.80;;;;;;;13.49;59.07;100409.23;105132;1254;63695;-58
2024/03/31 02:10:06;;;;;;;11.90;4.00;;;;;;;13.52;59.00;100408.63;105118;1258;61352;-58
2024/03/31 02:12:38;;;;;;;8.70;3.80;;;;;;;13.52;59.06;100408.27;105118;1253;61352;-57
2024/03/31 02:15:05;;;;;;;9.40;4.40;;;;;;;13.53;58.90;100408.16;105416;1255;65728;-57
2024/03/31 02:17:33;;;;;;;9.70;4.30;;;;;;;13.51;58.94;100406.06;105407;1258;61170;-58
2024/03/31 02:20:00;;;;;;;8.80;4.00;;;;;;;13.49;58.88;100403.98;105040;1258;63867;-57
2024/03/31 02:22:28;;;;;;;10.10;3.60;;;;;;;13.48;58.72;100407.21;105097;1258;61245;-58
2024/03/31 02:24:55;;;;;;;10.40;3.50;;;;;;;13.49;58.72;100408.61;105208;1255;61209;-59
2024/03/31 02:27:23;;;;;;;12.40;3.20;;;;;;;13.49;58.70;100415.48;105171;1253;65935;-60
2024/03/31 02:29:52;;;;;;;10.10;4.30;;;;;;;13.47;58.80;100418.60;106480;1253;61565;-60
2024/03/31 02:32:20;;;;;;;7.60;3.70;;;;;;;13.44;58.73;100413.95;105265;1257;66341;-59
2024/03/31 02:34:47;;;;;;;8.90;3.40;;;;;;;13.40;58.74;100412.05;105782;1253;61356;-59
2024/03/31 02:37:17;;;;;;;9.60;3.50;;;;;;;13.34;58.65;100409.98;105262;1258;61212;-59
2024/03/31 02:39:45;;;;;;;10.80;4.30;;;;;;;13.25;58.63;100414.93;105125;1253;66153;-59
2024/03/31 02:42:12;;;;;;;9.30;3.70;;;;;;;13.16;58.70;100416.96;105063;1260;61424;-59
2024/03/31 02:44:43;;;;;;;7.80;3.40;;;;;;;13.11;58.77;100412.84;105292;1257;63719;-59
2024/03/31 02:47:11;;;;;;;8.40;3.80;;;;;;;13.09;58.79;100410.53;105214;1254;61331;-58
2024/03/31 02:49:39;;;;;;;9.50;3.50;;;;;;;13.06;58.82;100407.52;106934;1258;61324;-57
2024/03/31 02:52:08;;;;;;;9.30;4.10;;;;;;;13.01;58.98;100410.98;105134;1253;64443;-57
2024/03/31 02:54:36;;;;;;;8.90;4.00;;;;;;;12.96;59.13;100410.69;105057;1258;62703;-57
2024/03/31 02:57:04;;;;;;;11.10;3.60;;;;;;;12.90;59.18;100408.07;104973;1253;66096;-58
2024/03/31 02:59:33;;;;;;;12.20;4.30;;;;;;;12.83;59.31;100412.48;107141;1253;61170;-58
2024/03/31 03:02:03;;;;;;;8.30;4.00;;;;;;;12.80;59.44;100415.65;106082;1257;61238;-58
2024/03/31 03:04:31;;;;;;;8.70;3.80;;;;;;;12.74;59.40;100412.93;105299;1254;65700;-56
2024/03/31 03:06:59;;;;;;;9.90;3.80;;;;;;;12.72;59.45;100413.52;105448;1260;61126;-59
2024/03/31 03:09:26;;;;;;;6.60;3.30;;;;;;;12.72;59.26;100417.38;105191;1255;62570;-61
2024/03/31 03:11:54;;;;;;;9.70;3.60;;;;;;;12.71;59.42;100419.08;105093;1254;61347;-58
2024/03/31 03:14:21;;;;;;;10.60;4.20;;;;;;;12.69;59.50;100420.09;105163;1258;60467;-61
2024/03/31 03:16:49;;;;;;;8.70;4.00;;;;;;;12.64;59.63;100421.79;105064;1253;65864;-60
2024/03/31 03:19:16;;;;;;;8.70;4.00;;;;;;;12.60;59.55;100422.86;105236;1258;61293;-60
2024/03/31 03:21:44;;;;;;;9.40;3.60;;;;;;;12.56;59.62;100426.23;105145;1253;62476;-58
2024/03/31 03:24:11;;;;;;;9.10;4.00;;;;;;;12.50;59.65;100427.83;105158;1254;61401;-59
2024/03/31 03:26:39;;;;;;;11.70;4.30;;;;;;;12.45;59.80;100428.77;105180;1253;61598;-59
2024/03/31 03:29:06;;;;;;;9.80;3.50;;;;;;;12.44;59.84;100435.52;105492;1253;65726;-60
2024/03/31 03:31:34;;;;;;;8.40;3.90;;;;;;;12.46;59.86;100439.17;105182;1258;61437;-59
2024/03/31 03:34:02;;;;;;;11.00;3.80;;;;;;;12.48;59.99;100438.71;105115;1258;63982;-58
2024/03/31 03:36:29;;;;;;;11.50;4.80;;;;;;;12.50;60.31;100435.39;105064;1253;61247;-57
2024/03/31 03:38:57;;;;;;;6.70;3.50;;;;;;;12.51;60.64;100434.91;105221;1253;60406;-59
2024/03/31 03:41:28;;;;;;;9.30;4.00;;;;;;;12.53;60.69;100433.79;105533;1253;65855;-58
2024/03/31 03:43:56;;;;;;;14.30;4.50;;;;;;;12.59;60.78;100439.33;105705;1253;61472;-58
2024/03/31 03:46:23;;;;;;;9.60;4.10;;;;;;;12.65;61.00;100436.11;105053;1260;63771;-59
2024/03/31 03:48:51;;;;;;;13.50;4.50;;;;;;;12.72;60.79;100437.14;105146;1253;61337;-59
2024/03/31 03:51:19;;;;;;;12.70;3.90;;;;;;;12.78;60.70;100441.17;105252;1258;61244;-59
2024/03/31 03:53:47;;;;;;;10.90;4.50;;;;;;;12.85;60.66;100443.38;106734;1253;65809;-58
2024/03/31 03:56:15;;;;;;;13.30;5.10;;;;;;;12.89;60.69;100443.04;105085;1253;61879;-58
2024/03/31 03:58:44;;;;;;;12.90;4.80;;;;;;;12.91;60.67;100443.38;105332;1256;64293;-58
2024/03/31 04:01:12;;;;;;;12.20;4.40;;;;;;;12.89;60.58;100445.42;105132;1253;61355;-58
2024/03/31 04:03:39;;;;;;;14.10;5.10;;;;;;;12.87;60.63;100440.90;105148;1256;61283;-57
2024/03/31 04:06:07;;;;;;;12.70;5.10;;;;;;;12.89;60.74;100437.59;104990;1253;65889;-57
2024/03/31 04:08:35;;;;;;;9.80;4.50;;;;;;;12.93;60.70;100440.55;105163;1258;61063;-57
2024/03/31 04:11:03;;;;;;;12.00;4.20;;;;;;;12.98;60.56;100440.58;104981;1260;63958;-58
2024/03/31 04:13:30;;;;;;;13.90;5.20;;;;;;;13.04;60.48;100443.43;105272;1261;61442;-57
2024/03/31 04:15:58;;;;;;;11.00;4.60;;;;;;;13.10;60.66;100443.97;105181;1257;61161;-60
2024/03/31 04:18:32;;;;;;;8.50;4.40;;;;;;;13.12;60.55;100446.02;105407;1253;64500;-59
2024/03/31 04:20:59;;;;;;;12.60;4.30;;;;;;;13.13;60.53;100445.44;104819;1259;71460;-59
2024/03/31 04:23:27;;;;;;;13.30;4.80;;;;;;;13.10;60.40;100446.46;105154;1255;62520;-59
2024/03/31 04:25:54;;;;;;;9.90;4.80;;;;;;;13.08;60.38;100446.04;105221;1260;61453;-60
2024/03/31 04:28:22;;;;;;;11.20;5.50;;;;;;;13.12;60.35;100447.49;105239;1258;61168;-58
2024/03/31 04:30:49;;;;;;;9.80;4.30;;;;;;;13.16;60.03;100447.14;105088;1253;64419;-59
2024/03/31 04:33:17;;;;;;;11.40;4.50;;;;;;;13.17;60.05;100444.58;105187;1253;61523;-61
2024/03/31 04:35:44;;;;;;;13.30;5.40;;;;;;;13.16;60.20;100443.58;105203;1256;63719;-59
2024/03/31 04:38:12;;;;;;;11.00;4.50;;;;;;;13.17;60.29;100445.99;105158;1258;61359;-59
2024/03/31 04:40:40;;;;;;;11.80;4.70;;;;;;;13.17;60.43;100444.55;105122;1252;61378;-60
2024/03/31 04:43:07;;;;;;;11.50;5.10;;;;;;;13.18;60.53;100445.19;105471;1253;65772;-59
2024/03/31 04:45:37;;;;;;;9.70;4.10;;;;;;;13.20;60.65;100449.39;105334;1253;61507;-54
2024/03/31 04:48:05;;;;;;;12.90;5.00;;;;;;;13.27;60.43;100447.86;105334;1253;62455;-55
2024/03/31 04:50:36;;;;;;;11.80;4.60;;;;;;;13.34;60.37;100446.73;105327;1258;61243;-54
2024/03/31 04:53:04;;;;;;;11.30;5.10;;;;;;;13.44;60.47;100448.16;105450;1254;61190;-53
2024/03/31 04:55:35;;;;;;;11.30;4.70;;;;;;;13.52;60.33;100456.55;105207;1261;64538;-49
2024/03/31 04:58:02;;;;;;;11.00;5.20;;;;;;;13.57;60.44;100459.99;105535;1258;61845;-48
2024/03/31 05:00:30;;;;;;;15.80;5.20;;;;;;;13.61;60.43;100461.19;105432;1253;63697;-52
2024/03/31 05:02:58;;;;;;;8.60;4.70;;;;;;;13.65;60.20;100465.27;104992;1253;61249;-49
2024/03/31 05:05:25;;;;;;;11.80;5.20;;;;;;;13.68;60.16;100465.91;104944;1257;61359;-54
2024/03/31 05:07:52;;;;;;;10.20;4.90;;;;;;;13.75;60.02;100464.73;105049;1258;65710;-53
2024/03/31 05:10:20;;;;;;;11.90;4.60;;;;;;;13.83;59.98;100461.29;105091;1258;61247;-52
2024/03/31 05:12:49;;;;;;;13.20;5.50;;;;;;;13.92;60.05;100458.58;105138;1257;73329;-52
2024/03/31 05:15:19;;;;;;;15.40;5.60;;;;;;;14.00;59.97;100457.98;105880;1253;61663;-48
2024/03/31 05:17:46;;;;;;;15.60;5.20;;;;;;;14.09;59.77;100459.26;105092;1253;61366;-48
2024/03/31 05:20:14;;;;;;;13.70;5.60;;;;;;;14.17;59.59;100459.43;105026;1253;66256;-56
2024/03/31 05:22:42;;;;;;;12.40;5.60;;;;;;;14.23;59.38;100456.75;107529;1259;60141;-54
2024/03/31 05:25:09;;;;;;;15.30;6.20;;;;;;;14.25;59.26;100457.61;105191;1257;63875;-57
2024/03/31 05:27:37;;;;;;;10.10;4.80;;;;;;;14.32;59.05;100456.81;105186;1256;61377;-60
2024/03/31 05:30:08;;;;;;;15.30;6.20;;;;;;;14.39;58.83;100458.20;105620;1253;65720;-56
2024/03/31 05:32:36;;;;;;;12.30;5.50;;;;;;;14.47;58.70;100460.79;105309;1258;65669;-58
2024/03/31 05:35:20;;;;;;;15.10;5.90;;;;;;;14.53;58.58;100461.45;105088;1257;61251;-56
2024/03/31 05:37:49;;;;;;;13.10;6.40;;;;;;;14.57;58.50;100457.90;105148;1253;62445;-58
2024/03/31 05:40:21;;;;;;;15.30;6.20;;;;;;;14.61;58.54;100457.92;105712;1256;62056;-59
2024/03/31 05:42:57;;;;;;;15.70;6.00;;;;;;;14.65;58.57;100459.64;106446;1253;61290;-57
2024/03/31 05:45:24;;;;;;;14.20;5.80;;;;;;;14.70;58.51;100457.48;105575;1253;66183;-58
2024/03/31 05:47:52;;;;;;;16.00;5.60;;;;;;;14.77;58.32;100459.95;108968;1253;61474;-58
2024/03/31 05:50:20;;;;;;;13.70;5.70;;;;;;;14.88;58.12;100458.20;105672;1257;63770;-56
2024/03/31 05:52:47;;;;;;;12.20;5.20;;;;;;;14.97;57.97;100455.92;106685;1253;61238;-58
2024/03/31 05:55:15;;;;;;;14.50;6.40;;;;;;;15.03;57.84;100456.71;105065;1258;61234;-57
2024/03/31 05:57:50;;;;;;;13.50;6.20;;;;;;;15.08;57.78;100457.82;105026;1253;64436;-59
2024/03/31 06:00:23;;;;;;;15.10;5.80;;;;;;;15.13;57.66;100455.42;105094;1259;63713;-58
2024/03/31 06:02:52;;;;;;;16.50;5.90;;;;;;;15.18;57.50;100454.48;105785;1257;64518;-60
2024/03/31 06:05:20;;;;;;;12.70;6.00;;;;;;;15.22;57.42;100459.95;105522;1253;61263;-58
2024/03/31 06:07:49;;;;;;;12.40;5.30;;;;;;;15.26;57.19;100463.29;105864;1256;61104;-59
2024/03/31 06:10:17;;;;;;;14.20;5.20;;;;;;;15.32;57.10;100464.26;105516;1253;64443;-59
2024/03/31 06:12:44;;;;;;;17.30;6.30;;;;;;;15.42;56.96;100466.36;105266;1261;61250;-58
2024/03/31 06:15:12;;;;;;;14.00;5.60;;;;;;;15.51;56.85;100466.48;105205;1254;63353;-57
2024/03/31 06:17:43;;;;;;;12.70;5.30;;;;;;;15.56;56.62;100473.70;105201;1253;61405;-57
2024/03/31 06:20:15;;;;;;;20.60;6.80;;;;;;;15.59;56.35;100470.31;105406;1260;61243;-60
2024/03/31 06:22:48;;;;;;;17.60;7.00;;;;;;;15.62;56.17;100469.14;105777;1252;65739;-60
2024/03/31 06:25:20;;;;;;;16.90;6.50;;;;;;;15.66;56.00;100472.73;105364;1257;61866;-60
2024/03/31 06:27:50;;;;;;;17.40;5.50;;;;;;;15.72;55.95;100472.84;105878;1253;64249;-61
2024/03/31 06:30:17;;;;;;;12.30;5.30;;;;;;;15.82;55.68;100471.35;105189;1254;62050;-59
2024/03/31 06:32:46;;;;;;;17.20;6.10;;;;;;;15.93;55.42;100471.10;105306;1253;61270;-57
2024/03/31 06:35:15;;;;;;;15.80;5.60;;;;;;;16.03;55.31;100466.45;105372;1260;65721;-62
2024/03/31 06:37:43;;;;;;;18.80;6.00;;;;;;;16.12;54.91;100465.31;106002;1253;61368;-58
2024/03/31 06:40:10;;;;;;;13.60;5.40;;;;;;;16.19;54.52;100466.91;105092;1260;64907;-58
2024/03/31 06:42:38;;;;;;;16.60;5.70;;;;;;;16.25;54.47;100472.18;104879;1258;262697;-59
2024/03/31 06:58:24;;;;;;;16.60;6.50;;;;;;;16.65;54.12;100453.17;102927;1282;604234;-59
2024/03/31 07:00:58;;;;;;;17.90;7.00;;;;;;;17.49;52.17;100450.27;105791;1267;323360;-56
2024/03/31 07:03:27;;;;;;;16.70;5.90;;;;;;;17.56;51.79;100449.66;105069;1264;59750;-54
2024/03/31 07:05:54;;;;;;;13.60;6.20;;;;;;;17.59;51.39;100449.91;105355;1268;64283;-56
2024/03/31 07:08:22;;;;;;;10.00;5.20;;;;;;;17.62;51.91;100447.86;105920;1266;62210;-57
2024/03/31 07:10:49;;;;;;;12.20;5.70;;;;;;;17.73;51.98;100452.61;105070;1266;64429;-55
2024/03/31 07:13:16;;;;;;;13.00;5.70;;;;;;;17.89;51.89;100457.02;106043;1266;59642;-55
2024/03/31 07:15:44;;;;;;;17.50;6.20;;;;;;;18.01;51.79;100457.42;105342;1264;59754;-58
2024/03/31 07:18:10;;;;;;;17.00;5.90;;;;;;;18.11;51.42;100458.64;104414;1268;64302;-56
2024/03/31 07:20:38;;;;;;;13.40;5.50;;;;;;;18.19;50.97;100453.73;104324;1268;60427;-58
2024/03/31 07:23:06;;;;;;;21.50;5.90;;;;;;;18.25;50.84;100452.80;105281;1266;64309;-57
2024/03/31 07:25:33;;;;;;;13.40;5.30;;;;;;;18.31;50.73;100452.15;105461;1264;60597;-57
2024/03/31 07:28:01;;;;;;;16.70;5.30;;;;;;;18.41;50.73;100445.70;104652;1266;60559;-57
2024/03/31 07:30:28;;;;;;;18.20;6.00;;;;;;;18.50;50.70;100445.75;104948;1266;64042;-56
2024/03/31 07:32:55;;;;;;;16.60;5.80;;;;;;;18.58;50.48;100445.13;105073;1266;61538;-59
2024/03/31 07:35:22;;;;;;;14.80;5.90;;;;;;;18.65;50.27;100444.66;104884;1264;62484;-58
2024/03/31 07:37:49;;;;;;;16.10;5.70;;;;;;;18.75;50.35;100443.02;105213;1269;60569;-57
2024/03/31 07:40:16;;;;;;;12.50;5.00;;;;;;;18.83;50.19;100442.38;107000;1266;60479;-56
2024/03/31 07:42:43;;;;;;;15.40;6.20;;;;;;;18.91;49.95;100439.55;104658;1268;65335;-57
2024/03/31 07:45:10;;;;;;;11.70;5.30;;;;;;;19.00;49.62;100437.66;108449;1266;61660;-57
2024/03/31 07:47:37;;;;;;;17.70;5.40;;;;;;;19.10;49.30;100441.45;105589;1267;64216;-56
2024/03/31 07:50:06;;;;;;;13.50;5.00;;;;;;;19.20;48.99;100443.92;104666;1266;60449;-56
2024/03/31 07:52:35;;;;;;;13.50;5.50;;;;;;;19.27;48.55;100449.35;105199;1264;60458;-57
2024/03/31 07:55:02;;;;;;;15.90;5.60;;;;;;;19.35;48.46;100453.77;104891;1268;65261;-62
2024/03/31 07:57:29;;;;;;;12.90;5.90;;;;;;;19.43;48.55;100453.61;104569;1265;62059;-55
2024/03/31 07:59:56;;;;;;;13.80;5.00;;;;;;;19.52;48.32;100450.91;104608;1268;64162;-56
2024/03/31 08:02:23;;;;;;;16.20;5.50;;;;;;;19.61;48.02;100449.31;105078;1266;60458;-56
2024/03/31 08:04:50;;;;;;;14.90;5.70;;;;;;;19.71;48.17;100447.08;104628;1268;60464;-57
2024/03/31 08:07:16;;;;;;;16.70;6.20;;;;;;;19.81;48.18;100447.71;104568;1267;64508;-58
2024/03/31 08:09:44;;;;;;;17.60;5.60;;;;;;;19.90;48.04;100443.13;104972;1266;61562;-57
2024/03/31 08:12:11;;;;;;;14.10;5.80;;;;;;;19.97;47.90;100438.13;104679;1268;64019;-54
2024/03/31 08:14:39;;;;;;;16.80;5.60;;;;;;;20.04;47.96;100442.30;104823;1266;60454;-54
2024/03/31 08:17:08;;;;;;;13.70;5.20;;;;;;;20.10;47.77;100441.86;107098;1266;60359;-56
2024/03/31 08:19:38;;;;;;;16.20;5.50;;;;;;;20.19;47.58;100442.84;105511;1264;65207;-54
2024/03/31 08:22:07;;;;;;;12.50;5.20;;;;;;;20.27;47.43;100443.27;104835;1269;61697;-51
2024/03/31 08:24:34;;;;;;;16.60;5.80;;;;;;;20.36;47.20;100442.41;106436;1266;64166;-52
2024/03/31 08:27:02;;;;;;;13.20;5.80;;;;;;;20.44;46.96;100444.45;104882;1268;60623;-54
2024/03/31 08:29:32;;;;;;;13.60;5.40;;;;;;;20.49;46.67;100441.55;106562;1264;60519;-55
2024/03/31 08:32:00;;;;;;;14.60;5.60;;;;;;;20.54;46.83;100438.09;104964;1267;75346;-55
2024/03/31 08:34:30;;;;;;;15.10;5.40;;;;;;;20.59;46.55;100433.70;105164;1268;65168;-53
2024/03/31 08:36:57;;;;;;;18.10;5.60;;;;;;;20.63;46.47;100431.33;105035;1268;63935;-57
2024/03/31 08:39:27;;;;;;;17.30;5.70;;;;;;;20.65;46.48;100431.13;105047;1267;60921;-58
2024/03/31 08:42:14;;;;;;;13.10;5.00;;;;;;;20.66;46.71;100425.75;105653;1266;60424;-56
2024/03/31 08:44:42;;;;;;;13.00;5.20;;;;;;;20.72;46.77;100425.70;106211;1266;65061;-48
2024/03/31 08:47:11;;;;;;;13.00;5.30;;;;;;;20.79;46.55;100421.66;108453;1264;60552;-52
2024/03/31 08:49:39;;;;;;;17.30;5.40;;;;;;;20.84;46.40;100420.02;104865;1268;62862;-53
2024/03/31 08:52:07;;;;;;;18.80;6.90;;;;;;;20.87;46.58;100421.38;104684;1261;60444;-49
2024/03/31 08:54:34;;;;;;;12.60;5.70;;;;;;;20.94;46.81;100418.61;105002;1265;60561;-52
2024/03/31 08:57:01;;;;;;;14.00;5.40;;;;;;;21.00;46.69;100418.55;105014;1263;63987;-49
2024/03/31 08:59:29;;;;;;;16.50;5.90;;;;;;;21.08;46.69;100424.77;104764;1265;61674;-62
2024/03/31 09:01:58;;;;;;;19.50;5.90;;;;;;;21.16;46.68;100426.02;104565;1260;63891;-53
2024/03/31 09:04:25;;;;;;;13.50;5.30;;;;;;;21.26;46.75;100424.40;106136;1258;60502;-50
2024/03/31 09:06:52;;;;;;;15.70;5.60;;;;;;;21.37;46.68;100422.85;105500;1259;60454;-60
2024/03/31 09:09:23;;;;;;;19.40;6.10;;;;;;;21.48;46.19;100421.93;105455;1260;63782;-54
2024/03/31 09:11:50;;;;;;;16.60;5.50;;;;;;;21.59;46.25;100419.85;105903;1257;62795;-49
2024/03/31 09:14:18;;;;;;;22.80;6.40;;;;;;;21.72;46.30;100421.16;105690;1256;64370;-50
2024/03/31 09:16:48;;;;;;;14.30;5.10;;;;;;;21.85;46.04;100416.89;105050;1257;60421;-55
2024/03/31 09:19:15;;;;;;;15.90;4.90;;;;;;;21.97;45.55;100409.07;105743;1259;60520;-52
2024/03/31 09:21:46;;;;;;;11.70;4.20;;;;;;;22.06;44.48;100409.28;105150;1259;65328;-55
2024/03/31 09:24:13;;;;;;;14.40;4.50;;;;;;;22.14;44.39;100411.87;106767;1256;63177;-60
2024/03/31 09:26:40;;;;;;;18.50;5.50;;;;;;;22.23;44.35;100408.65;105272;1256;63852;-54
2024/03/31 09:29:08;;;;;;;13.40;4.90;;;;;;;22.32;43.93;100410.29;106019;1257;60324;-55
2024/03/31 09:31:35;;;;;;;14.00;4.90;;;;;;;22.42;43.81;100406.92;106031;1259;60323;-55
2024/03/31 09:34:02;;;;;;;12.00;4.90;;;;;;;22.50;43.74;100407.98;105087;1259;65268;-55
2024/03/31 09:36:29;;;;;;;14.70;4.80;;;;;;;22.59;43.33;100407.64;105208;1259;60639;-54
2024/03/31 09:38:56;;;;;;;14.10;5.10;;;;;;;22.67;43.11;100407.25;105455;1257;64048;-56
2024/03/31 09:41:23;;;;;;;13.50;4.60;;;;;;;22.75;43.30;100409.91;105122;1257;59590;-57
2024/03/31 09:43:50;;;;;;;13.60;4.40;;;;;;;22.84;43.16;100408.08;105031;1255;60461;-54
2024/03/31 09:46:17;;;;;;;14.80;5.40;;;;;;;22.91;42.85;100405.71;105696;1260;65324;-55
2024/03/31 09:48:45;;;;;;;14.00;4.30;;;;;;;22.95;42.69;100399.06;105057;1260;61746;-56
2024/03/31 09:51:16;;;;;;;12.90;4.90;;;;;;;23.01;42.65;100398.48;105952;1257;64451;-54
2024/03/31 09:53:48;;;;;;;10.30;4.50;;;;;;;23.06;42.61;100398.27;105017;1263;60454;-51
2024/03/31 09:56:16;;;;;;;14.50;5.00;;;;;;;23.14;42.50;100397.23;105190;1258;60477;-53
2024/03/31 09:58:43;;;;;;;15.60;5.00;;;;;;;23.24;42.30;100394.54;105765;1260;65053;-53
2024/03/31 10:01:10;;;;;;;11.30;4.50;;;;;;;23.34;42.10;100391.39;104946;1260;61804;-56
2024/03/31 10:03:46;;;;;;;9.00;4.00;;;;;;;23.44;41.54;100389.20;105078;1256;63726;-52
2024/03/31 10:06:12;;;;;;;13.20;4.30;;;;;;;23.50;41.51;100388.38;105136;1260;60498;-52
2024/03/31 10:08:40;;;;;;;16.60;4.80;;;;;;;23.58;41.32;100388.27;105011;1261;62604;-54
2024/03/31 10:11:07;;;;;;;13.30;4.50;;;;;;;23.68;40.76;100386.66;105236;1259;65065;-54
2024/03/31 10:13:34;;;;;;;10.10;4.00;;;;;;;23.72;40.72;100386.23;105087;1260;61477;-56
2024/03/31 10:16:05;;;;;;;15.30;4.80;;;;;;;23.79;40.81;100382.27;104837;1259;64494;-54
2024/03/31 10:18:32;;;;;;;15.40;4.10;;;;;;;23.88;40.84;100380.70;108974;1259;59350;-54
2024/03/31 10:20:59;;;;;;;14.30;4.60;;;;;;;23.97;40.85;100376.38;108849;1257;58500;-54
2024/03/31 10:23:26;;;;;;;15.80;4.40;;;;;;;24.08;40.87;100377.14;108872;1257;63956;-55
2024/03/31 10:25:52;;;;;;;14.60;3.60;;;;;;;24.19;40.70;100373.53;105483;1260;61828;-54
2024/03/31 10:28:19;;;;;;;16.40;5.70;;;;;;;24.32;40.70;100372.58;107364;1259;63795;-51
2024/03/31 10:30:46;;;;;;;14.70;6.40;;;;;;;24.43;40.85;100369.48;107406;1261;59205;-55
2024/03/31 10:33:13;;;;;;;16.90;6.30;;;;;;;24.53;40.65;100364.10;105205;1258;60536;-49
2024/03/31 10:35:44;;;;;;;17.10;5.40;;;;;;;24.57;40.59;100359.52;105048;1259;65464;-50
2024/03/31 10:38:11;;;;;;;16.10;5.20;;;;;;;24.62;40.62;100358.17;107583;1257;63468;-50
2024/03/31 10:40:39;;;;;;;15.40;5.40;;;;;;;24.65;40.77;100354.84;108286;1262;64111;-49
2024/03/31 10:43:07;;;;;;;10.40;4.40;;;;;;;24.68;40.60;100353.25;105075;1261;60542;-50
2024/03/31 10:45:34;;;;;;;13.80;5.10;;;;;;;24.69;40.57;100349.81;105307;1262;62300;-49
2024/03/31 10:48:01;;;;;;;16.60;4.90;;;;;;;24.72;40.69;100349.79;104979;1259;66553;-47
2024/03/31 10:50:28;;;;;;;12.80;4.80;;;;;;;24.77;40.72;100343.84;105468;1259;61633;-48
2024/03/31 10:52:56;;;;;;;12.00;4.00;;;;;;;24.82;40.30;100340.02;105476;1261;63954;-51
2024/03/31 10:55:23;;;;;;;12.30;3.60;;;;;;;24.86;39.97;100338.42;105116;1260;60489;-50
2024/03/31 10:57:58;;;;;;;14.40;4.20;;;;;;;24.91;39.72;100337.07;105591;1260;60444;-50
2024/03/31 11:00:25;;;;;;;;;;;;;;;24.98;40.25;100337.41;105693;1259;64948;-53
2024/03/31 11:02:53;;;;;;;15.20;4.20;;;;;;;25.07;40.41;100330.83;106362;1259;61579;-53
2024/03/31 11:05:20;;;;;;;10.10;3.40;;;;;;;25.11;39.77;100322.50;105807;1259;64075;-54
2024/03/31 11:07:48;;;;;;;11.40;4.10;;;;;;;25.19;38.68;100316.84;105820;1260;61424;-54
2024/03/31 11:10:15;;;;;;;11.00;4.00;;;;;;;25.31;38.28;100314.98;105062;1257;61120;-52
2024/03/31 11:12:43;;;;;;;10.70;3.70;;;;;;;25.43;37.40;100310.23;106854;1259;66073;-52
2024/03/31 11:15:11;;;;;;;11.60;4.50;;;;;;;25.53;37.21;100302.98;107408;1259;62244;-53
2024/03/31 11:17:37;;;;;;;13.60;3.70;;;;;;;25.62;37.09;100300.33;104629;1261;65093;-57
2024/03/31 11:20:05;;;;;;;9.30;3.30;;;;;;;25.68;36.47;100297.27;108775;1256;59728;-51
2024/03/31 11:22:32;;;;;;;9.80;3.50;;;;;;;25.74;36.74;100296.16;108990;1260;59617;-55
2024/03/31 11:24:59;;;;;;;10.70;3.60;;;;;;;25.85;36.21;100291.02;108792;1257;64555;-53
2024/03/31 11:27:26;;;;;;;10.70;3.60;;;;;;;25.94;36.26;100289.10;108925;1256;62042;-56
2024/03/31 11:29:52;;;;;;;11.90;3.80;;;;;;;26.05;36.29;100280.80;108924;1253;75674;-55